Time;durP1;ratioP1;P1;durP2;ratioP2;P2;SDS_P1;SDS_P2;PMS_P1;PMS_P2;Temp;Humidity;BMP_temperature;BMP_pressure;BME280_temperature;BME280_humidity;BME280_pressure;Samples;Min_cycle;Max_cycle;Signal;HPM_P1;HPM_P2
2021/10/03 00:02:09;;;;;;;4.2;3;;;;;;;;;;;;;
2021/10/03 00:04:34;;;;;;;5;3.1;;;;;;;;;;;;;
2021/10/03 00:06:59;;;;;;;5;2.6;;;;;;;;;;;;;
2021/10/03 00:09:24;;;;;;;6.4;2.8;;;;;;;;;;;;;
2021/10/03 00:11:50;;;;;;;4.1;2.7;;;;;;;;;;;;;
2021/10/03 00:14:15;;;;;;;5;2.9;;;;;;;;;;;;;
2021/10/03 00:16:40;;;;;;;6.5;2.8;;;;;;;;;;;;;
2021/10/03 00:19:05;;;;;;;3;2.6;;;;;;;;;;;;;
2021/10/03 00:21:30;;;;;;;3.5;2.6;;;;;;;;;;;;;
2021/10/03 00:23:56;;;;;;;4.7;2.8;;;;;;;;;;;;;
2021/10/03 00:26:21;;;;;;;3;2.7;;;;;;;;;;;;;
2021/10/03 00:28:46;;;;;;;3.5;2.7;;;;;;;;;;;;;
2021/10/03 00:31:12;;;;;;;4;3;;;;;;;;;;;;;
2021/10/03 00:33:37;;;;;;;4;2.6;;;;;;;;;;;;;
2021/10/03 00:36:02;;;;;;;3.3;3;;;;;;;;;;;;;
2021/10/03 00:38:49;;;;;;;5.1;2.6;;;;;;;;;;;;;
2021/10/03 00:40:59;;;;;;;3.6;2.5;;;;;;;;;;;;;
2021/10/03 00:43:24;;;;;;;5;2.7;;;;;;;;;;;;;
2021/10/03 00:45:49;;;;;;;4.7;2.9;;;;;;;;;;;;;
2021/10/03 00:48:15;;;;;;;4.1;2.7;;;;;;;;;;;;;
2021/10/03 00:50:40;;;;;;;4.2;2.8;;;;;;;;;;;;;
2021/10/03 00:53:05;;;;;;;5.1;2.8;;;;;;;;;;;;;
2021/10/03 00:55:31;;;;;;;4.6;2.6;;;;;;;;;;;;;
2021/10/03 00:57:56;;;;;;;2.6;2.4;;;;;;;;;;;;;
2021/10/03 01:00:21;;;;;;;3.3;2.5;;;;;;;;;;;;;
2021/10/03 01:02:46;;;;;;;4.8;2.7;;;;;;;;;;;;;
2021/10/03 01:05:12;;;;;;;3.1;2.4;;;;;;;;;;;;;
2021/10/03 01:07:37;;;;;;;3.7;2.6;;;;;;;;;;;;;
2021/10/03 01:10:02;;;;;;;3.4;2.6;;;;;;;;;;;;;
2021/10/03 01:12:28;;;;;;;5.1;2.7;;;;;;;;;;;;;
2021/10/03 01:14:53;;;;;;;3.4;2.5;;;;;;;;;;;;;
2021/10/03 01:17:18;;;;;;;3;2.5;;;;;;;;;;;;;
2021/10/03 01:19:43;;;;;;;2.5;2.3;;;;;;;;;;;;;
2021/10/03 01:22:08;;;;;;;3.7;2.2;;;;;;;;;;;;;
2021/10/03 01:24:34;;;;;;;4.2;2.6;;;;;;;;;;;;;
2021/10/03 01:26:59;;;;;;;3.5;2.4;;;;;;;;;;;;;
2021/10/03 01:29:24;;;;;;;3.4;2.6;;;;;;;;;;;;;
2021/10/03 01:31:49;;;;;;;3.5;2.6;;;;;;;;;;;;;
2021/10/03 01:34:14;;;;;;;5.5;2.8;;;;;;;;;;;;;
2021/10/03 01:36:39;;;;;;;3.4;2.5;;;;;;;;;;;;;
2021/10/03 01:39:05;;;;;;;3.8;2.3;;;;;;;;;;;;;
2021/10/03 01:41:30;;;;;;;4.4;2.7;;;;;;;;;;;;;
2021/10/03 01:43:55;;;;;;;2.6;2.3;;;;;;;;;;;;;
2021/10/03 01:46:20;;;;;;;2.6;2.2;;;;;;;;;;;;;
2021/10/03 01:48:47;;;;;;;4;2.6;;;;;;;;;;;;;
2021/10/03 01:51:11;;;;;;;3.5;2.5;;;;;;;;;;;;;
2021/10/03 01:53:36;;;;;;;3.5;2.4;;;;;;;;;;;;;
2021/10/03 01:56:01;;;;;;;2.5;2.2;;;;;;;;;;;;;
2021/10/03 01:58:27;;;;;;;2.4;2.1;;;;;;;;;;;;;
2021/10/03 02:00:52;;;;;;;2.4;2.1;;;;;;;;;;;;;
2021/10/03 02:03:17;;;;;;;2.9;2.2;;;;;;;;;;;;;
2021/10/03 02:05:42;;;;;;;3.3;2.4;;;;;;;;;;;;;
2021/10/03 02:08:07;;;;;;;3.5;2.3;;;;;;;;;;;;;
2021/10/03 02:10:32;;;;;;;3.1;2.1;;;;;;;;;;;;;
2021/10/03 02:12:57;;;;;;;5.9;2.7;;;;;;;;;;;;;
2021/10/03 02:15:23;;;;;;;3.8;2.3;;;;;;;;;;;;;
2021/10/03 02:17:48;;;;;;;3.8;2.5;;;;;;;;;;;;;
2021/10/03 02:20:13;;;;;;;4.5;2.1;;;;;;;;;;;;;
2021/10/03 02:22:38;;;;;;;3.2;2.4;;;;;;;;;;;;;
2021/10/03 02:25:03;;;;;;;4.3;2.4;;;;;;;;;;;;;
2021/10/03 02:27:29;;;;;;;4.7;2.5;;;;;;;;;;;;;
2021/10/03 02:29:54;;;;;;;3.6;2.5;;;;;;;;;;;;;
2021/10/03 02:32:19;;;;;;;5.6;2.4;;;;;;;;;;;;;
2021/10/03 02:34:44;;;;;;;4.8;2.6;;;;;;;;;;;;;
2021/10/03 02:37:09;;;;;;;2.9;2.4;;;;;;;;;;;;;
2021/10/03 02:39:34;;;;;;;5.4;2.6;;;;;;;;;;;;;
2021/10/03 02:41:59;;;;;;;3.1;2.3;;;;;;;;;;;;;
2021/10/03 02:44:25;;;;;;;2.6;2.3;;;;;;;;;;;;;
2021/10/03 02:46:50;;;;;;;3.8;2.2;;;;;;;;;;;;;
2021/10/03 02:49:15;;;;;;;5.2;2.4;;;;;;;;;;;;;
2021/10/03 02:51:40;;;;;;;2.7;2.1;;;;;;;;;;;;;
2021/10/03 02:54:05;;;;;;;4.5;2.1;;;;;;;;;;;;;
2021/10/03 02:56:30;;;;;;;3.6;2.4;;;;;;;;;;;;;
2021/10/03 02:58:55;;;;;;;3.4;2.5;;;;;;;;;;;;;
2021/10/03 03:01:21;;;;;;;5.3;2.5;;;;;;;;;;;;;
2021/10/03 03:03:47;;;;;;;3.3;2.3;;;;;;;;;;;;;
2021/10/03 03:06:12;;;;;;;2.9;2.6;;;;;;;;;;;;;
2021/10/03 03:08:37;;;;;;;4.6;2.6;;;;;;;;;;;;;
2021/10/03 03:11:02;;;;;;;4.1;2.6;;;;;;;;;;;;;
2021/10/03 03:13:27;;;;;;;3.4;2.4;;;;;;;;;;;;;
2021/10/03 03:15:52;;;;;;;5;2.9;;;;;;;;;;;;;
2021/10/03 03:18:18;;;;;;;3;2.4;;;;;;;;;;;;;
2021/10/03 03:20:43;;;;;;;4.7;2.4;;;;;;;;;;;;;
2021/10/03 03:23:08;;;;;;;5.9;2.5;;;;;;;;;;;;;
2021/10/03 03:25:35;;;;;;;2.8;2.5;;;;;;;;;;;;;
2021/10/03 03:27:59;;;;;;;5;2.9;;;;;;;;;;;;;
2021/10/03 03:30:24;;;;;;;4.2;2.5;;;;;;;;;;;;;
2021/10/03 03:32:50;;;;;;;3.1;2.6;;;;;;;;;;;;;
2021/10/03 03:35:15;;;;;;;4;2.9;;;;;;;;;;;;;
2021/10/03 03:37:40;;;;;;;4.9;2.6;;;;;;;;;;;;;
2021/10/03 03:40:05;;;;;;;2.7;2.4;;;;;;;;;;;;;
2021/10/03 03:42:31;;;;;;;3.4;2.6;;;;;;;;;;;;;
2021/10/03 03:44:56;;;;;;;4.6;2.6;;;;;;;;;;;;;
2021/10/03 03:47:21;;;;;;;4.6;3.1;;;;;;;;;;;;;
2021/10/03 03:49:50;;;;;;;4.3;2.7;;;;;;;;;;;;;
2021/10/03 03:52:11;;;;;;;2.9;2.3;;;;;;;;;;;;;
2021/10/03 03:54:36;;;;;;;5.2;2.9;;;;;;;;;;;;;
2021/10/03 03:57:01;;;;;;;2.6;2.3;;;;;;;;;;;;;
2021/10/03 03:59:26;;;;;;;3.1;2.3;;;;;;;;;;;;;
2021/10/03 04:02:31;;;;;;;2.5;2.3;;;;;;;10.5;84.91895;932.5888;;;;
2021/10/03 04:04:56;;;;;;;3.7;2.3;;;;;;;10.54;84.66309;932.5856;;;;
2021/10/03 04:07:23;;;;;;;4.8;2.7;;;;;;;10.54;84.81152;932.7385;;;;
2021/10/03 04:09:46;;;;;;;3.5;2.6;;;;;;;;;;;;;
2021/10/03 04:12:11;;;;;;;3.1;2.2;;;;;;;;;;;;;
2021/10/03 04:14:38;;;;;;;3;2.3;;;;;;;;;;;;;
2021/10/03 04:17:02;;;;;;;4.9;2.5;;;;;;;;;;;;;
2021/10/03 04:20:07;;;;;;;3.6;2.5;;;;;;;;;;;;;
2021/10/03 04:22:27;;;;;;;3.5;2.6;;;;;;;;;;;;;
2021/10/03 04:24:52;;;;;;;4;2.5;;;;;;;;;;;;;
2021/10/03 04:27:17;;;;;;;3.9;3.2;;;;;;;;;;;;;
2021/10/03 04:29:42;;;;;;;4;2.8;;;;;;;;;;;;;
2021/10/03 04:32:07;;;;;;;4;3.1;;;;;;;;;;;;;
2021/10/03 04:34:32;;;;;;;6.1;3.8;;;;;;;;;;;;;
2021/10/03 04:36:58;;;;;;;4.7;3.1;;;;;;;;;;;;;
2021/10/03 04:39:25;;;;;;;4.5;2.9;;;;;;;;;;;;;
2021/10/03 04:41:49;;;;;;;7;3.3;;;;;;;;;;;;;
2021/10/03 04:44:15;;;;;;;5.2;3.3;;;;;;;;;;;;;
2021/10/03 04:46:40;;;;;;;5.9;3.2;;;;;;;;;;;;;
2021/10/03 04:49:05;;;;;;;4;3;;;;;;;;;;;;;
2021/10/03 04:51:30;;;;;;;5.7;2.9;;;;;;;;;;;;;
2021/10/03 04:53:55;;;;;;;6.7;2.8;;;;;;;;;;;;;
2021/10/03 04:56:20;;;;;;;7.8;3.7;;;;;;;;;;;;;
2021/10/03 04:58:46;;;;;;;6.7;3.5;;;;;;;;;;;;;
2021/10/03 05:01:11;;;;;;;5.3;2.9;;;;;;;;;;;;;
2021/10/03 05:03:36;;;;;;;3.1;2.7;;;;;;;;;;;;;
2021/10/03 05:06:01;;;;;;;4.7;3.2;;;;;;;;;;;;;
2021/10/03 05:08:26;;;;;;;5;3.2;;;;;;;;;;;;;
2021/10/03 05:10:51;;;;;;;7.6;4.1;;;;;;;;;;;;;
2021/10/03 05:13:16;;;;;;;8.3;4.8;;;;;;;;;;;;;
2021/10/03 05:15:43;;;;;;;9.1;4.8;;;;;;;;;;;;;
2021/10/03 05:18:07;;;;;;;6.9;4.5;;;;;;;;;;;;;
2021/10/03 05:20:32;;;;;;;9.6;4.3;;;;;;;;;;;;;
2021/10/03 05:22:58;;;;;;;9.8;4.2;;;;;;;;;;;;;
2021/10/03 05:25:23;;;;;;;9.4;4.4;;;;;;;;;;;;;
2021/10/03 05:27:49;;;;;;;9.2;3.9;;;;;;;;;;;;;
2021/10/03 05:30:14;;;;;;;8.8;3.7;;;;;;;;;;;;;
2021/10/03 05:32:41;;;;;;;6.7;3.3;;;;;;;;;;;;;
2021/10/03 05:35:11;;;;;;;8.7;3.8;;;;;;;;;;;;;
2021/10/03 05:37:36;;;;;;;9.3;4.9;;;;;;;;;;;;;
2021/10/03 05:40:01;;;;;;;8.2;4.6;;;;;;;;;;;;;
2021/10/03 05:42:27;;;;;;;8.7;4.2;;;;;;;;;;;;;
2021/10/03 05:44:52;;;;;;;4.8;3.1;;;;;;;;;;;;;
2021/10/03 05:47:18;;;;;;;9;3.7;;;;;;;;;;;;;
2021/10/03 05:49:43;;;;;;;9.6;3.4;;;;;;;;;;;;;
2021/10/03 05:52:09;;;;;;;10.1;4;;;;;;;;;;;;;
2021/10/03 05:54:34;;;;;;;9.7;4.2;;;;;;;;;;;;;
2021/10/03 05:56:59;;;;;;;7.5;3.9;;;;;;;;;;;;;
2021/10/03 05:59:24;;;;;;;8.7;3;;;;;;;;;;;;;
2021/10/03 06:01:49;;;;;;;7.2;3.1;;;;;;;;;;;;;
2021/10/03 06:04:16;;;;;;;6.3;3.3;;;;;;;;;;;;;
2021/10/03 06:06:41;;;;;;;13.6;6.3;;;;;;;;;;;;;
2021/10/03 06:09:06;;;;;;;11.7;5.5;;;;;;;;;;;;;
2021/10/03 06:11:32;;;;;;;8.4;4.5;;;;;;;;;;;;;
2021/10/03 06:13:57;;;;;;;9.2;4.1;;;;;;;;;;;;;
2021/10/03 06:16:22;;;;;;;7.4;3.8;;;;;;;;;;;;;
2021/10/03 06:18:47;;;;;;;7.5;3.6;;;;;;;;;;;;;
2021/10/03 06:21:15;;;;;;;8.5;4.2;;;;;;;;;;;;;
2021/10/03 06:23:38;;;;;;;6.6;3.5;;;;;;;;;;;;;
2021/10/03 06:26:03;;;;;;;6.6;3.4;;;;;;;;;;;;;
2021/10/03 06:28:28;;;;;;;6.2;3.6;;;;;;;;;;;;;
2021/10/03 06:30:54;;;;;;;15;8.3;;;;;;;;;;;;;
2021/10/03 06:33:19;;;;;;;10.8;6.7;;;;;;;;;;;;;
2021/10/03 06:35:44;;;;;;;8.4;4.7;;;;;;;;;;;;;
2021/10/03 06:38:09;;;;;;;8;4;;;;;;;;;;;;;
2021/10/03 06:40:34;;;;;;;9.2;3.9;;;;;;;;;;;;;
2021/10/03 06:42:59;;;;;;;6.9;3.2;;;;;;;;;;;;;
2021/10/03 06:45:24;;;;;;;4.9;2.8;;;;;;;;;;;;;
2021/10/03 06:47:49;;;;;;;6.7;3;;;;;;;;;;;;;
2021/10/03 06:50:17;;;;;;;7.3;3.7;;;;;;;;;;;;;
2021/10/03 06:52:40;;;;;;;7.9;3.5;;;;;;;;;;;;;
2021/10/03 06:55:05;;;;;;;6.5;3.3;;;;;;;;;;;;;
2021/10/03 06:57:30;;;;;;;7.4;3.5;;;;;;;;;;;;;
2021/10/03 06:59:55;;;;;;;8.3;3.6;;;;;;;;;;;;;
2021/10/03 07:02:20;;;;;;;6.2;3;;;;;;;;;;;;;
2021/10/03 07:04:45;;;;;;;2.7;2.2;;;;;;;;;;;;;
2021/10/03 07:07:10;;;;;;;4.6;2.5;;;;;;;;;;;;;
2021/10/03 07:09:37;;;;;;;4.5;2.8;;;;;;;;;;;;;
2021/10/03 07:12:02;;;;;;;5;2.7;;;;;;;;;;;;;
2021/10/03 07:14:28;;;;;;;5.6;2.6;;;;;;;;;;;;;
2021/10/03 07:16:53;;;;;;;3.6;2.1;;;;;;;;;;;;;
2021/10/03 07:19:19;;;;;;;3.2;2.2;;;;;;;;;;;;;
2021/10/03 07:21:44;;;;;;;2.6;2.4;;;;;;;;;;;;;
2021/10/03 07:24:09;;;;;;;4.3;2;;;;;;;;;;;;;
2021/10/03 07:26:34;;;;;;;3.7;2.4;;;;;;;;;;;;;
2021/10/03 07:28:59;;;;;;;3.2;1.9;;;;;;;;;;;;;
2021/10/03 07:31:24;;;;;;;2.9;2;;;;;;;;;;;;;
2021/10/03 07:33:49;;;;;;;3.7;2.2;;;;;;;;;;;;;
2021/10/03 07:36:16;;;;;;;3.9;2.5;;;;;;;;;;;;;
2021/10/03 07:38:40;;;;;;;3.2;2.1;;;;;;;;;;;;;
2021/10/03 07:41:05;;;;;;;4.2;2.4;;;;;;;;;;;;;
2021/10/03 07:43:30;;;;;;;4.1;2.1;;;;;;;;;;;;;
2021/10/03 07:45:55;;;;;;;2.1;1.7;;;;;;;;;;;;;
2021/10/03 07:48:20;;;;;;;1.9;1.6;;;;;;;;;;;;;
2021/10/03 07:50:45;;;;;;;2.4;1.9;;;;;;;;;;;;;
2021/10/03 07:53:11;;;;;;;3;2;;;;;;;;;;;;;
2021/10/03 07:55:36;;;;;;;2.4;1.8;;;;;;;;;;;;;
2021/10/03 07:58:03;;;;;;;2.3;1.7;;;;;;;;;;;;;
2021/10/03 08:00:28;;;;;;;2.2;1.9;;;;;;;;;;;;;
2021/10/03 08:02:53;;;;;;;2.8;1.7;;;;;;;;;;;;;
2021/10/03 08:05:18;;;;;;;3;2.1;;;;;;;;;;;;;
2021/10/03 08:07:43;;;;;;;1.9;1.6;;;;;;;;;;;;;
2021/10/03 08:10:08;;;;;;;3.6;2;;;;;;;;;;;;;
2021/10/03 08:12:34;;;;;;;2;1.8;;;;;;;;;;;;;
2021/10/03 08:14:58;;;;;;;1.7;1.6;;;;;;;;;;;;;
2021/10/03 08:17:23;;;;;;;2.3;1.5;;;;;;;;;;;;;
2021/10/03 08:19:48;;;;;;;1.9;1.1;;;;;;;;;;;;;
2021/10/03 08:22:14;;;;;;;2.7;1.5;;;;;;;;;;;;;
2021/10/03 08:24:39;;;;;;;2.3;1.5;;;;;;;;;;;;;
2021/10/03 08:27:04;;;;;;;1.6;1.5;;;;;;;;;;;;;
2021/10/03 08:29:29;;;;;;;1.3;1.2;;;;;;;;;;;;;
2021/10/03 08:31:54;;;;;;;1.6;1.5;;;;;;;;;;;;;
2021/10/03 08:34:21;;;;;;;2.6;1.8;;;;;;;;;;;;;
2021/10/03 08:36:45;;;;;;;3;1.9;;;;;;;;;;;;;
2021/10/03 08:39:10;;;;;;;1.8;1.5;;;;;;;;;;;;;
2021/10/03 08:41:35;;;;;;;1.5;1.4;;;;;;;;;;;;;
2021/10/03 08:44:01;;;;;;;1.6;1.5;;;;;;;;;;;;;
2021/10/03 08:46:26;;;;;;;1.7;1.6;;;;;;;;;;;;;
2021/10/03 08:48:51;;;;;;;1.6;1.5;;;;;;;;;;;;;
2021/10/03 08:51:16;;;;;;;2.3;1.6;;;;;;;;;;;;;
2021/10/03 08:53:41;;;;;;;2.2;1.8;;;;;;;;;;;;;
2021/10/03 08:56:06;;;;;;;2;1.5;;;;;;;;;;;;;
2021/10/03 08:58:33;;;;;;;2.1;1.7;;;;;;;;;;;;;
2021/10/03 09:00:56;;;;;;;1.9;1.5;;;;;;;;;;;;;
2021/10/03 09:03:22;;;;;;;2.5;1.7;;;;;;;;;;;;;
2021/10/03 09:05:47;;;;;;;4;1.6;;;;;;;;;;;;;
2021/10/03 09:08:12;;;;;;;2;1.7;;;;;;;;;;;;;
2021/10/03 09:10:37;;;;;;;1.8;1.7;;;;;;;;;;;;;
2021/10/03 09:13:02;;;;;;;1.5;1.4;;;;;;;;;;;;;
2021/10/03 09:15:29;;;;;;;1.8;1.5;;;;;;;;;;;;;
2021/10/03 09:17:53;;;;;;;2.4;1.3;;;;;;;;;;;;;
2021/10/03 09:20:18;;;;;;;1.8;1.5;;;;;;;;;;;;;
2021/10/03 09:22:43;;;;;;;1.6;1.4;;;;;;;;;;;;;
2021/10/03 09:25:09;;;;;;;3.2;1.6;;;;;;;;;;;;;
2021/10/03 09:27:34;;;;;;;1.5;1.4;;;;;;;;;;;;;
2021/10/03 09:29:59;;;;;;;1.7;1.5;;;;;;;;;;;;;
2021/10/03 09:32:25;;;;;;;1.3;1.2;;;;;;;;;;;;;
2021/10/03 09:34:49;;;;;;;33.7;2.6;;;;;;;;;;;;;
2021/10/03 09:37:14;;;;;;;1.7;1.3;;;;;;;;;;;;;
2021/10/03 09:39:39;;;;;;;1.4;1.3;;;;;;;;;;;;;
2021/10/03 09:42:05;;;;;;;1.9;1.2;;;;;;;;;;;;;
2021/10/03 09:44:30;;;;;;;2;1.4;;;;;;;;;;;;;
2021/10/03 09:46:56;;;;;;;1.7;1.6;;;;;;;;;;;;;
2021/10/03 09:49:20;;;;;;;2.2;1.7;;;;;;;;;;;;;
2021/10/03 09:51:45;;;;;;;1.5;1.4;;;;;;;;;;;;;
2021/10/03 09:54:10;;;;;;;1.2;1.1;;;;;;;;;;;;;
2021/10/03 09:56:36;;;;;;;2.7;1.4;;;;;;;;;;;;;
2021/10/03 09:59:01;;;;;;;1.8;1.4;;;;;;;;;;;;;
2021/10/03 10:01:26;;;;;;;1.9;1.7;;;;;;;;;;;;;
2021/10/03 10:03:51;;;;;;;1.7;1.5;;;;;;;;;;;;;
2021/10/03 10:06:17;;;;;;;2.1;1.4;;;;;;;;;;;;;
2021/10/03 10:08:41;;;;;;;3.2;1.5;;;;;;;;;;;;;
2021/10/03 10:11:07;;;;;;;2.1;1.4;;;;;;;;;;;;;
2021/10/03 10:13:32;;;;;;;3.4;1.5;;;;;;;;;;;;;
2021/10/03 10:15:58;;;;;;;1.7;1.3;;;;;;;;;;;;;
2021/10/03 10:18:23;;;;;;;1.9;1.4;;;;;;;;;;;;;
2021/10/03 10:20:48;;;;;;;1.5;1.4;;;;;;;;;;;;;
2021/10/03 10:23:14;;;;;;;1.6;1.4;;;;;;;;;;;;;
2021/10/03 10:25:38;;;;;;;1.5;1.4;;;;;;;;;;;;;
2021/10/03 10:28:04;;;;;;;1.8;1.5;;;;;;;;;;;;;
2021/10/03 10:30:28;;;;;;;1.8;1.5;;;;;;;;;;;;;
2021/10/03 10:32:53;;;;;;;2.3;1.4;;;;;;;;;;;;;
2021/10/03 10:35:19;;;;;;;2.1;1.6;;;;;;;;;;;;;
2021/10/03 10:37:44;;;;;;;1.7;1.6;;;;;;;;;;;;;
2021/10/03 10:40:10;;;;;;;1.5;1.4;;;;;;;;;;;;;
2021/10/03 10:42:35;;;;;;;1.4;1.3;;;;;;;;;;;;;
2021/10/03 10:45:01;;;;;;;1.8;1.5;;;;;;;;;;;;;
2021/10/03 10:47:27;;;;;;;67;4;;;;;;;;;;;;;
2021/10/03 10:49:52;;;;;;;1.3;1.2;;;;;;;;;;;;;
2021/10/03 10:52:17;;;;;;;1.4;1.2;;;;;;;;;;;;;
2021/10/03 10:54:42;;;;;;;1.5;1.4;;;;;;;;;;;;;
2021/10/03 10:57:08;;;;;;;1.5;1.4;;;;;;;;;;;;;
2021/10/03 10:59:33;;;;;;;2.1;1.6;;;;;;;;;;;;;
2021/10/03 11:01:58;;;;;;;2.9;1.3;;;;;;;;;;;;;
2021/10/03 11:04:35;;;;;;;1.4;1.3;;;;;;;;;;;;;
2021/10/03 11:06:48;;;;;;;1.2;1.1;;;;;;;;;;;;;
2021/10/03 11:09:14;;;;;;;1;1;;;;;;;;;;;;;
2021/10/03 11:11:38;;;;;;;2;1.5;;;;;;;;;;;;;
2021/10/03 11:14:11;;;;;;;1.4;1.3;;;;;;;;;;;;;
2021/10/03 11:16:36;;;;;;;26;2.3;;;;;;;;;;;;;
2021/10/03 11:19:01;;;;;;;1.4;1.3;;;;;;;;;;;;;
2021/10/03 11:21:27;;;;;;;1.2;1.1;;;;;;;;;;;;;
2021/10/03 11:23:52;;;;;;;1.2;1.1;;;;;;;;;;;;;
2021/10/03 11:26:17;;;;;;;1;1;;;;;;;;;;;;;
2021/10/03 11:28:42;;;;;;;1;1;;;;;;;;;;;;;
2021/10/03 11:31:07;;;;;;;2.3;1.3;;;;;;;;;;;;;
2021/10/03 11:33:32;;;;;;;2.1;1.1;;;;;;;;;;;;;
2021/10/03 11:35:57;;;;;;;1.8;1.3;;;;;;;;;;;;;
2021/10/03 11:38:22;;;;;;;1.5;1.4;;;;;;;;;;;;;
2021/10/03 11:40:48;;;;;;;1.2;1.1;;;;;;;;;;;;;
2021/10/03 11:43:13;;;;;;;1;0.9;;;;;;;;;;;;;
2021/10/03 11:45:58;;;;;;;1.2;1.1;;;;;;;;;;;;;
2021/10/03 11:48:23;;;;;;;1.3;1.1;;;;;;;;;;;;;
2021/10/03 11:50:50;;;;;;;1.3;1.2;;;;;;;;;;;;;
2021/10/03 11:55:38;;;;;;;1.4;1.3;;;;;;;;;;;;;
2021/10/03 11:58:04;;;;;;;1.4;1.2;;;;;;;;;;;;;
2021/10/03 12:00:30;;;;;;;1.7;1.2;;;;;;;;;;;;;
2021/10/03 12:02:55;;;;;;;1.3;1.2;;;;;;;;;;;;;
2021/10/03 12:05:20;;;;;;;1.7;1.2;;;;;;;;;;;;;
2021/10/03 12:07:46;;;;;;;1.5;1.4;;;;;;;;;;;;;
2021/10/03 12:10:11;;;;;;;1.4;1.3;;;;;;;;;;;;;
2021/10/03 12:12:36;;;;;;;1;1;;;;;;;;;;;;;
2021/10/03 12:15:01;;;;;;;0.9;0.9;;;;;;;;;;;;;
2021/10/03 12:17:34;;;;;;;1.1;1;;;;;;;;;;;;;
2021/10/03 12:19:59;;;;;;;1.4;1.2;;;;;;;;;;;;;
2021/10/03 12:22:24;;;;;;;3;1.4;;;;;;;;;;;;;
2021/10/03 12:24:49;;;;;;;1.1;0.8;;;;;;;;;;;;;
2021/10/03 12:27:15;;;;;;;1.2;1.1;;;;;;;;;;;;;
2021/10/03 12:29:40;;;;;;;1.7;1.2;;;;;;;;;;;;;
2021/10/03 12:32:05;;;;;;;1;0.9;;;;;;;;;;;;;
2021/10/03 12:34:30;;;;;;;1.1;1;;;;;;;;;;;;;
2021/10/03 12:36:56;;;;;;;1.3;1.1;;;;;;;;;;;;;
2021/10/03 12:39:21;;;;;;;1.4;1.3;;;;;;;;;;;;;
2021/10/03 12:41:48;;;;;;;2.2;1.2;;;;;;;;;;;;;
2021/10/03 12:44:12;;;;;;;1.6;1.2;;;;;;;;;;;;;
2021/10/03 12:46:37;;;;;;;2;1.2;;;;;;;;;;;;;
2021/10/03 12:49:02;;;;;;;2;1.5;;;;;;;;;;;;;
2021/10/03 12:51:27;;;;;;;2.4;1;;;;;;;;;;;;;
2021/10/03 12:53:52;;;;;;;1.3;1.2;;;;;;;;;;;;;
2021/10/03 12:56:18;;;;;;;1.4;1.3;;;;;;;;;;;;;
2021/10/03 12:58:43;;;;;;;1.6;1;;;;;;;;;;;;;
2021/10/03 13:01:08;;;;;;;1.9;1.4;;;;;;;;;;;;;
2021/10/03 13:03:34;;;;;;;15.3;1.6;;;;;;;;;;;;;
2021/10/03 13:05:58;;;;;;;1.2;1.1;;;;;;;;;;;;;
2021/10/03 13:08:26;;;;;;;1.4;1.3;;;;;;;;;;;;;
2021/10/03 13:10:49;;;;;;;3;1.5;;;;;;;;;;;;;
2021/10/03 13:13:14;;;;;;;75.9;3.3;;;;;;;;;;;;;
2021/10/03 13:15:39;;;;;;;1.1;1;;;;;;;;;;;;;
2021/10/03 13:18:04;;;;;;;4.7;1.8;;;;;;;;;;;;;
2021/10/03 13:20:29;;;;;;;1.2;0.9;;;;;;;;;;;;;
2021/10/03 13:22:54;;;;;;;1.7;1.3;;;;;;;;;;;;;
2021/10/03 13:25:19;;;;;;;1.1;1;;;;;;;;;;;;;
2021/10/03 13:27:45;;;;;;;4.4;1.2;;;;;;;;;;;;;
2021/10/03 13:30:09;;;;;;;1.8;1.3;;;;;;;;;;;;;
2021/10/03 13:32:35;;;;;;;1.3;1.2;;;;;;;;;;;;;
2021/10/03 13:35:00;;;;;;;66.1;2.6;;;;;;;;;;;;;
2021/10/03 13:37:26;;;;;;;1.5;1.2;;;;;;;;;;;;;
2021/10/03 13:39:51;;;;;;;1.3;1.2;;;;;;;;;;;;;
2021/10/03 13:42:17;;;;;;;1;1;;;;;;;;;;;;;
2021/10/03 13:44:42;;;;;;;1.2;1.1;;;;;;;;;;;;;
2021/10/03 13:47:07;;;;;;;33.4;2.2;;;;;;;;;;;;;
2021/10/03 13:49:32;;;;;;;1.8;1.1;;;;;;;;;;;;;
2021/10/03 13:51:57;;;;;;;1.5;1.4;;;;;;;;;;;;;
2021/10/03 13:54:22;;;;;;;14.4;1.5;;;;;;;;;;;;;
2021/10/03 13:56:47;;;;;;;1.1;1.1;;;;;;;;;;;;;
2021/10/03 13:59:13;;;;;;;1.3;1.2;;;;;;;;;;;;;
2021/10/03 14:01:38;;;;;;;1.7;1.1;;;;;;;;;;;;;
2021/10/03 14:04:03;;;;;;;1.1;1;;;;;;;;;;;;;
2021/10/03 14:06:28;;;;;;;1.1;1;;;;;;;;;;;;;
2021/10/03 14:08:53;;;;;;;1.1;1;;;;;;;;;;;;;
2021/10/03 14:11:18;;;;;;;1.3;1.2;;;;;;;;;;;;;
2021/10/03 14:14:02;;;;;;;1.3;1.2;;;;;;;;;;;;;
2021/10/03 14:16:09;;;;;;;1.3;1;;;;;;;;;;;;;
2021/10/03 14:18:35;;;;;;;1.4;1.3;;;;;;;;;;;;;
2021/10/03 14:21:00;;;;;;;1.1;1;;;;;;;;;;;;;
2021/10/03 14:23:25;;;;;;;1.2;1.1;;;;;;;;;;;;;
2021/10/03 14:25:50;;;;;;;1.2;1.1;;;;;;;;;;;;;
2021/10/03 14:28:15;;;;;;;1.2;1.1;;;;;;;;;;;;;
2021/10/03 14:30:40;;;;;;;1.4;1.3;;;;;;;;;;;;;
2021/10/03 14:33:07;;;;;;;1.8;1.2;;;;;;;;;;;;;
2021/10/03 14:35:31;;;;;;;13.2;1.4;;;;;;;;;;;;;
2021/10/03 14:37:57;;;;;;;1.3;1.2;;;;;;;;;;;;;
2021/10/03 14:40:22;;;;;;;1.2;1.1;;;;;;;;;;;;;
2021/10/03 14:42:47;;;;;;;1.2;1.1;;;;;;;;;;;;;
2021/10/03 14:45:12;;;;;;;1.2;1.1;;;;;;;;;;;;;
2021/10/03 14:47:37;;;;;;;1.3;1.2;;;;;;;;;;;;;
2021/10/03 14:50:02;;;;;;;56.7;2.2;;;;;;;;;;;;;
2021/10/03 14:52:28;;;;;;;1.6;1.3;;;;;;;;;;;;;
2021/10/03 14:54:53;;;;;;;1.2;1.1;;;;;;;;;;;;;
2021/10/03 14:57:18;;;;;;;1.1;1;;;;;;;;;;;;;
2021/10/03 14:59:43;;;;;;;85.7;5.3;;;;;;;;;;;;;
2021/10/03 15:02:08;;;;;;;1.1;0.8;;;;;;;;;;;;;
2021/10/03 15:04:34;;;;;;;389.8;12.5;;;;;;;;;;;;;
2021/10/03 15:06:59;;;;;;;1.2;1.1;;;;;;;;;;;;;
2021/10/03 15:09:25;;;;;;;1.4;1.3;;;;;;;;;;;;;
2021/10/03 15:11:50;;;;;;;1.3;1.2;;;;;;;;;;;;;
2021/10/03 15:14:15;;;;;;;57.9;4.4;;;;;;;;;;;;;
2021/10/03 15:16:40;;;;;;;1.3;1.2;;;;;;;;;;;;;
2021/10/03 15:19:06;;;;;;;1.3;1.2;;;;;;;;;;;;;
2021/10/03 15:21:31;;;;;;;1.5;1.4;;;;;;;;;;;;;
2021/10/03 15:23:56;;;;;;;1.7;1.5;;;;;;;;;;;;;
2021/10/03 15:26:21;;;;;;;1.7;1.2;;;;;;;;;;;;;
2021/10/03 15:28:46;;;;;;;2.3;1.3;;;;;;;;;;;;;
2021/10/03 15:31:11;;;;;;;2;1.2;;;;;;;;;;;;;
2021/10/03 15:33:36;;;;;;;1;0.9;;;;;;;;;;;;;
2021/10/03 15:36:02;;;;;;;1.1;1;;;;;;;;;;;;;
2021/10/03 15:38:27;;;;;;;1;0.9;;;;;;;;;;;;;
2021/10/03 15:40:52;;;;;;;1.4;1.1;;;;;;;;;;;;;
2021/10/03 15:43:17;;;;;;;1.1;1;;;;;;;;;;;;;
2021/10/03 15:45:43;;;;;;;1.5;1.2;;;;;;;;;;;;;
2021/10/03 15:48:08;;;;;;;1.3;1.2;;;;;;;;;;;;;
2021/10/03 15:50:33;;;;;;;1.4;1.3;;;;;;;;;;;;;
2021/10/03 15:52:58;;;;;;;1.2;1.1;;;;;;;;;;;;;
2021/10/03 15:55:23;;;;;;;1.1;1;;;;;;;;;;;;;
2021/10/03 15:57:48;;;;;;;1;1;;;;;;;;;;;;;
2021/10/03 16:00:13;;;;;;;1.6;1.3;;;;;;;;;;;;;
2021/10/03 16:02:39;;;;;;;1.6;1.4;;;;;;;;;;;;;
2021/10/03 16:05:04;;;;;;;1.4;1.2;;;;;;;;;;;;;
2021/10/03 16:07:29;;;;;;;2;1.5;;;;;;;;;;;;;
2021/10/03 16:09:54;;;;;;;1.6;1.5;;;;;;;;;;;;;
2021/10/03 16:12:19;;;;;;;2.8;1.4;;;;;;;;;;;;;
2021/10/03 16:14:44;;;;;;;1.2;1.1;;;;;;;;;;;;;
2021/10/03 16:17:09;;;;;;;1.7;1.3;;;;;;;;;;;;;
2021/10/03 16:19:34;;;;;;;1.8;1.6;;;;;;;;;;;;;
2021/10/03 16:21:59;;;;;;;3.3;1.6;;;;;;;;;;;;;
2021/10/03 16:24:24;;;;;;;1.9;1.7;;;;;;;;;;;;;
2021/10/03 16:26:50;;;;;;;1.9;1.4;;;;;;;;;;;;;
2021/10/03 16:29:15;;;;;;;1.3;1;;;;;;;;;;;;;
2021/10/03 16:31:41;;;;;;;2;1;;;;;;;;;;;;;
2021/10/03 16:34:06;;;;;;;1.1;1;;;;;;;;;;;;;
2021/10/03 16:36:31;;;;;;;1.5;1.1;;;;;;;;;;;;;
2021/10/03 16:38:56;;;;;;;2.7;1.4;;;;;;;;;;;;;
2021/10/03 16:41:22;;;;;;;1.2;1.1;;;;;;;;;;;;;
2021/10/03 16:43:46;;;;;;;4.7;1.6;;;;;;;;;;;;;
2021/10/03 16:46:11;;;;;;;4.7;2.8;;;;;;;;;;;;;
2021/10/03 16:48:37;;;;;;;3.6;2.1;;;;;;;;;;;;;
2021/10/03 16:51:02;;;;;;;3.1;1.8;;;;;;;;;;;;;
2021/10/03 16:53:29;;;;;;;3.1;2.1;;;;;;;;;;;;;
2021/10/03 16:55:54;;;;;;;2.7;1.9;;;;;;;;;;;;;
2021/10/03 16:58:20;;;;;;;3.4;1.2;;;;;;;;;;;;;
2021/10/03 17:00:46;;;;;;;4;1.4;;;;;;;;;;;;;
2021/10/03 17:03:10;;;;;;;2;1.5;;;;;;;;;;;;;
2021/10/03 17:05:35;;;;;;;3;2.1;;;;;;;;;;;;;
2021/10/03 17:08:01;;;;;;;3;1.7;;;;;;;;;;;;;
2021/10/03 17:10:26;;;;;;;3;1.7;;;;;;;;;;;;;
2021/10/03 17:12:51;;;;;;;2.2;1.2;;;;;;;;;;;;;
2021/10/03 17:15:17;;;;;;;1.2;1;;;;;;;;;;;;;
2021/10/03 17:17:42;;;;;;;3.1;1.5;;;;;;;;;;;;;
2021/10/03 17:20:08;;;;;;;1.5;1.4;;;;;;;;;;;;;
2021/10/03 17:22:33;;;;;;;2.7;1.4;;;;;;;;;;;;;
2021/10/03 17:24:58;;;;;;;1.5;1.4;;;;;;;;;;;;;
2021/10/03 17:27:24;;;;;;;1.9;1.4;;;;;;;;;;;;;
2021/10/03 17:29:49;;;;;;;1.8;1.4;;;;;;;;;;;;;
2021/10/03 17:32:14;;;;;;;2.3;1.4;;;;;;;;;;;;;
2021/10/03 17:34:39;;;;;;;3.6;1.8;;;;;;;;;;;;;
2021/10/03 17:37:07;;;;;;;1.6;1.4;;;;;;;;;;;;;
2021/10/03 17:39:29;;;;;;;1.6;1.5;;;;;;;;;;;;;
2021/10/03 17:41:55;;;;;;;2;1.5;;;;;;;;;;;;;
2021/10/03 17:44:20;;;;;;;1.9;1.5;;;;;;;;;;;;;
2021/10/03 17:46:45;;;;;;;1.8;1.3;;;;;;;;;;;;;
2021/10/03 17:49:10;;;;;;;1.2;1.1;;;;;;;;;;;;;
2021/10/03 17:51:35;;;;;;;1.4;1.3;;;;;;;;;;;;;
2021/10/03 17:54:00;;;;;;;3.2;1.4;;;;;;;;;;;;;
2021/10/03 17:56:25;;;;;;;2.2;1.5;;;;;;;;;;;;;
2021/10/03 17:58:51;;;;;;;1.6;1.3;;;;;;;;;;;;;
2021/10/03 18:01:16;;;;;;;1.6;1.3;;;;;;;;;;;;;
2021/10/03 18:03:41;;;;;;;2.3;1.2;;;;;;;;;;;;;
2021/10/03 18:06:06;;;;;;;2.1;1.2;;;;;;;;;;;;;
2021/10/03 18:08:31;;;;;;;2.3;1.4;;;;;;;;;;;;;
2021/10/03 18:10:57;;;;;;;1.5;1.1;;;;;;;;;;;;;
2021/10/03 18:13:22;;;;;;;2.1;1.2;;;;;;;;;;;;;
2021/10/03 18:15:47;;;;;;;1.5;1.2;;;;;;;;;;;;;
2021/10/03 18:18:12;;;;;;;2.4;1.5;;;;;;;;;;;;;
2021/10/03 18:20:37;;;;;;;2.1;1.6;;;;;;;;;;;;;
2021/10/03 18:23:02;;;;;;;2.3;1.7;;;;;;;;;;;;;
2021/10/03 18:25:28;;;;;;;1.8;1.4;;;;;;;;;;;;;
2021/10/03 18:27:53;;;;;;;2;1.5;;;;;;;;;;;;;
2021/10/03 18:30:18;;;;;;;1.4;1.3;;;;;;;;;;;;;
2021/10/03 18:32:48;;;;;;;1.9;1.5;;;;;;;;;;;;;
2021/10/03 18:35:09;;;;;;;1.4;1.3;;;;;;;;;;;;;
2021/10/03 18:37:35;;;;;;;2;1.1;;;;;;;;;;;;;
2021/10/03 18:40:00;;;;;;;2.3;1.6;;;;;;;;;;;;;
2021/10/03 18:42:25;;;;;;;1.8;1.5;;;;;;;;;;;;;
2021/10/03 18:44:52;;;;;;;2.4;1.7;;;;;;;;;;;;;
2021/10/03 18:47:18;;;;;;;1.9;1.6;;;;;;;;;;;;;
2021/10/03 18:49:41;;;;;;;3.3;1.6;;;;;;;;;;;;;
2021/10/03 18:52:06;;;;;;;2.1;1.8;;;;;;;;;;;;;
2021/10/03 18:54:31;;;;;;;3;2.2;;;;;;;;;;;;;
2021/10/03 18:56:56;;;;;;;3.1;2.2;;;;;;;;;;;;;
2021/10/03 18:59:21;;;;;;;2.8;2.3;;;;;;;;;;;;;
2021/10/03 19:01:47;;;;;;;2.8;2.3;;;;;;;;;;;;;
2021/10/03 19:04:12;;;;;;;3.8;2.6;;;;;;;;;;;;;
2021/10/03 19:06:37;;;;;;;4.5;2.3;;;;;;;;;;;;;
2021/10/03 19:09:02;;;;;;;3.7;2.2;;;;;;;;;;;;;
2021/10/03 19:11:27;;;;;;;3;2.2;;;;;;;;;;;;;
2021/10/03 19:13:53;;;;;;;2.9;2;;;;;;;;;;;;;
2021/10/03 19:16:17;;;;;;;2;1.6;;;;;;;;;;;;;
2021/10/03 19:18:43;;;;;;;2;1.6;;;;;;;;;;;;;
2021/10/03 19:21:08;;;;;;;2.2;1.5;;;;;;;;;;;;;
2021/10/03 19:23:34;;;;;;;1.9;1.4;;;;;;;;;;;;;
2021/10/03 19:25:59;;;;;;;2.1;1.8;;;;;;;;;;;;;
2021/10/03 19:28:24;;;;;;;1.5;1.3;;;;;;;;;;;;;
2021/10/03 19:30:50;;;;;;;4.6;1.7;;;;;;;;;;;;;
2021/10/03 19:33:15;;;;;;;2.9;1.8;;;;;;;;;;;;;
2021/10/03 19:35:40;;;;;;;3.3;1.8;;;;;;;;;;;;;
2021/10/03 19:38:05;;;;;;;3.6;2.2;;;;;;;;;;;;;
2021/10/03 19:40:30;;;;;;;1.9;1.5;;;;;;;;;;;;;
2021/10/03 19:42:55;;;;;;;1.9;1.6;;;;;;;;;;;;;
2021/10/03 19:45:21;;;;;;;1.8;1.6;;;;;;;;;;;;;
2021/10/03 19:47:46;;;;;;;3.4;2.1;;;;;;;;;;;;;
2021/10/03 19:50:11;;;;;;;3.2;2;;;;;;;;;;;;;
2021/10/03 19:52:36;;;;;;;2.6;1.9;;;;;;;;;;;;;
2021/10/03 19:55:02;;;;;;;2.5;1.9;;;;;;;;;;;;;
2021/10/03 19:57:27;;;;;;;3.7;2;;;;;;;;;;;;;
2021/10/03 19:59:52;;;;;;;4;2;;;;;;;;;;;;;
2021/10/03 20:02:17;;;;;;;3.5;2.1;;;;;;;;;;;;;
2021/10/03 20:04:42;;;;;;;4.1;1.9;;;;;;;;;;;;;
2021/10/03 20:07:07;;;;;;;2.7;1.7;;;;;;;;;;;;;
2021/10/03 20:09:33;;;;;;;2.9;2.1;;;;;;;;;;;;;
2021/10/03 20:11:58;;;;;;;2.7;1.8;;;;;;;;;;;;;
2021/10/03 20:14:23;;;;;;;2.5;2;;;;;;;;;;;;;
2021/10/03 20:16:50;;;;;;;2.7;2.1;;;;;;;;;;;;;
2021/10/03 20:19:14;;;;;;;2.9;2;;;;;;;;;;;;;
2021/10/03 20:21:39;;;;;;;3;2.4;;;;;;;;;;;;;
2021/10/03 20:24:04;;;;;;;3.4;2.1;;;;;;;;;;;;;
2021/10/03 20:26:29;;;;;;;4;2.4;;;;;;;;;;;;;
2021/10/03 20:28:55;;;;;;;3.2;2.2;;;;;;;;;;;;;
2021/10/03 20:31:19;;;;;;;4.7;2.3;;;;;;;;;;;;;
2021/10/03 20:33:44;;;;;;;3.2;2;;;;;;;;;;;;;
2021/10/03 20:36:09;;;;;;;4.5;2.2;;;;;;;;;;;;;